createdAt,value
2023-01-19T00:00:05.260Z,30.00
2023-01-19T00:00:28.087Z,99.90
2023-01-19T00:00:52.375Z,99.90
2023-01-19T00:01:15.139Z,99.90
2023-01-19T00:01:37.920Z,99.90
2023-01-19T00:02:00.711Z,99.90
2023-01-19T00:02:23.566Z,99.90
2023-01-19T00:02:47.589Z,99.90
2023-01-19T00:03:16.259Z,99.90
2023-01-19T00:03:39.454Z,1.00
2023-01-19T00:04:02.320Z,1.00
2023-01-19T00:04:25.282Z,1.00
2023-01-19T00:04:50.851Z,1.00
2023-01-19T00:05:13.666Z,1.00
2023-01-19T00:05:36.690Z,1.00
2023-01-19T00:06:01.610Z,1.00
2023-01-19T00:06:24.584Z,1.00
2023-01-19T00:06:49.610Z,1.00
2023-01-19T00:07:12.431Z,1.00
2023-01-19T00:07:37.725Z,1.00
2023-01-19T00:08:14.869Z,1.00
2023-01-19T00:08:38.080Z,1.00
2023-01-19T00:09:00.825Z,28.20
2023-01-19T00:09:26.205Z,99.90
2023-01-19T00:09:52.113Z,99.90
2023-01-19T00:10:14.995Z,99.90
2023-01-19T00:10:38.780Z,99.90
2023-01-19T00:11:01.715Z,99.90
2023-01-19T00:11:24.507Z,99.90
2023-01-19T00:11:47.320Z,99.90
2023-01-19T00:12:12.639Z,99.90
2023-01-19T00:12:35.409Z,1.00
2023-01-19T00:13:00.766Z,1.00
2023-01-19T00:13:26.345Z,1.00
2023-01-19T00:13:54.601Z,1.00
2023-01-19T00:14:17.444Z,1.00
2023-01-19T00:14:42.562Z,1.00
2023-01-19T00:15:09.738Z,1.00
2023-01-19T00:15:32.599Z,1.00
2023-01-19T00:15:57.895Z,1.00
2023-01-19T00:16:23.442Z,1.00
2023-01-19T00:16:46.417Z,98.80
2023-01-19T00:17:09.279Z,99.90
2023-01-19T00:17:32.177Z,99.90
2023-01-19T00:17:54.952Z,99.90
2023-01-19T00:18:17.775Z,99.90
2023-01-19T00:18:43.754Z,99.90
2023-01-19T00:19:06.509Z,99.90
2023-01-19T00:19:29.266Z,99.90
2023-01-19T00:19:52.073Z,99.90
2023-01-19T00:20:15.288Z,99.90
2023-01-19T00:20:37.960Z,99.90
2023-01-19T00:21:00.741Z,99.90
2023-01-19T00:21:23.445Z,99.90
2023-01-19T00:21:46.181Z,99.90
2023-01-19T00:22:08.885Z,99.90
2023-01-19T00:22:34.080Z,99.90
2023-01-19T00:22:57.035Z,99.90
2023-01-19T00:23:23.203Z,1.00
2023-01-19T00:23:48.824Z,1.00
2023-01-19T00:24:13.927Z,1.00
2023-01-19T00:24:36.689Z,1.00
2023-01-19T00:24:59.375Z,1.00
2023-01-19T00:25:22.083Z,1.00
2023-01-19T00:25:47.357Z,1.00
2023-01-19T00:26:10.736Z,1.00
2023-01-19T00:26:35.862Z,1.00
2023-01-19T00:26:58.588Z,1.00
2023-01-19T00:27:23.510Z,1.00
2023-01-19T00:27:49.542Z,1.00
2023-01-19T00:28:14.599Z,1.00
2023-01-19T00:28:39.796Z,1.00
2023-01-19T00:29:02.900Z,1.00
2023-01-19T00:29:27.811Z,1.00
2023-01-19T00:29:54.479Z,1.00
2023-01-19T00:30:17.671Z,1.00
2023-01-19T00:30:42.717Z,1.00
2023-01-19T00:31:07.274Z,1.00
2023-01-19T00:31:32.264Z,1.00
2023-01-19T00:31:55.037Z,1.00
2023-01-19T00:32:19.926Z,1.00
2023-01-19T00:32:42.728Z,1.00
2023-01-19T00:33:05.565Z,1.00
2023-01-19T00:33:30.607Z,1.00
2023-01-19T00:33:53.483Z,1.00
2023-01-19T00:34:16.415Z,1.00
2023-01-19T00:34:42.803Z,1.00
2023-01-19T00:35:06.153Z,1.00
2023-01-19T00:35:31.141Z,1.00
2023-01-19T00:35:55.062Z,1.00
2023-01-19T00:36:20.314Z,1.00
2023-01-19T00:36:43.070Z,1.00
2023-01-19T00:37:08.320Z,1.00
2023-01-19T00:37:31.037Z,1.00
2023-01-19T00:37:55.994Z,1.00
2023-01-19T00:38:18.725Z,1.00
2023-01-19T00:38:43.641Z,1.00
2023-01-19T00:39:08.964Z,1.00
2023-01-19T00:39:31.725Z,1.00
2023-01-19T00:39:57.105Z,1.00
2023-01-19T00:40:22.275Z,1.00
2023-01-19T00:40:44.998Z,1.00
2023-01-19T00:41:09.894Z,1.00
2023-01-19T00:41:51.486Z,1.00
2023-01-19T00:42:32.891Z,1.00
2023-01-19T00:42:55.684Z,1.00
2023-01-19T00:43:18.389Z,1.00
2023-01-19T00:43:43.280Z,1.00
2023-01-19T00:44:06.204Z,1.00
2023-01-19T00:44:29.296Z,1.00
2023-01-19T00:44:52.135Z,1.00
2023-01-19T00:45:15.906Z,1.00
2023-01-19T00:45:38.741Z,1.00
2023-01-19T00:46:04.691Z,1.00
2023-01-19T00:46:29.027Z,1.00
2023-01-19T00:46:51.783Z,1.00
2023-01-19T00:47:14.750Z,1.00
2023-01-19T00:47:39.693Z,1.00
2023-01-19T00:48:02.427Z,1.00
2023-01-19T00:48:25.192Z,1.00
2023-01-19T00:48:47.924Z,1.00
2023-01-19T00:49:10.845Z,1.00
2023-01-19T00:49:33.631Z,1.00
2023-01-19T00:49:58.827Z,1.00
2023-01-19T00:50:23.975Z,1.00
2023-01-19T00:50:46.723Z,1.00
2023-01-19T00:51:12.441Z,1.00
2023-01-19T00:51:37.690Z,1.00
2023-01-19T00:52:00.458Z,1.00
2023-01-19T00:52:25.707Z,1.00
2023-01-19T00:52:48.580Z,99.90
2023-01-19T00:53:11.363Z,99.90
2023-01-19T00:53:34.127Z,99.90
2023-01-19T00:53:56.909Z,99.90
2023-01-19T00:54:19.766Z,99.90
2023-01-19T00:54:42.465Z,99.90
2023-01-19T00:55:06.574Z,99.90
2023-01-19T00:55:29.664Z,99.90
2023-01-19T00:55:52.465Z,99.90
2023-01-19T00:56:15.205Z,99.90
2023-01-19T00:56:38.000Z,99.90
2023-01-19T00:57:00.785Z,99.90
2023-01-19T00:57:23.694Z,99.90
2023-01-19T00:57:46.556Z,99.90
2023-01-19T00:58:09.789Z,99.90
2023-01-19T00:58:32.490Z,99.90
2023-01-19T00:58:55.259Z,99.90
2023-01-19T00:59:18.015Z,57.60
2023-01-19T00:59:43.392Z,1.00
2023-01-19T01:00:07.468Z,1.00
2023-01-19T01:00:30.295Z,1.00
2023-01-19T01:00:56.492Z,1.00
2023-01-19T01:01:19.334Z,1.00
2023-01-19T01:01:46.620Z,1.00
2023-01-19T01:02:12.141Z,1.00
2023-01-19T01:02:35.218Z,1.00
2023-01-19T01:03:00.926Z,1.00
2023-01-19T01:03:28.170Z,1.00
2023-01-19T01:03:53.584Z,1.00
2023-01-19T01:04:16.482Z,1.00
2023-01-19T01:04:39.212Z,1.00
2023-01-19T01:05:04.451Z,1.00
2023-01-19T01:05:27.159Z,1.00
2023-01-19T01:05:53.035Z,1.00
2023-01-19T01:06:15.845Z,1.00
2023-01-19T01:06:41.068Z,1.00
2023-01-19T01:07:04.500Z,1.00
2023-01-19T01:07:33.303Z,1.00
2023-01-19T01:07:56.065Z,1.00
2023-01-19T01:08:21.090Z,1.00
2023-01-19T01:08:43.756Z,1.00
2023-01-19T01:09:12.112Z,1.00
2023-01-19T01:09:34.903Z,1.00
2023-01-19T01:09:57.677Z,1.00
2023-01-19T01:10:21.555Z,93.30
2023-01-19T01:10:44.324Z,76.50
2023-01-19T01:11:10.276Z,99.90
2023-01-19T01:11:33.062Z,97.80
2023-01-19T01:11:57.998Z,88.20
2023-01-19T01:12:22.676Z,30.00
2023-01-19T01:12:56.202Z,38.60
2023-01-19T01:13:25.389Z,1.00
2023-01-19T01:13:49.018Z,1.00
2023-01-19T01:14:12.467Z,99.90
2023-01-19T01:14:37.981Z,99.90
2023-01-19T01:15:00.666Z,99.90
2023-01-19T01:15:23.704Z,99.90
2023-01-19T01:15:51.635Z,64.80
2023-01-19T01:16:15.591Z,1.00
2023-01-19T01:16:40.618Z,1.00
2023-01-19T01:17:04.877Z,1.00
2023-01-19T01:17:27.636Z,1.00
2023-01-19T01:17:53.464Z,1.00
2023-01-19T01:18:16.168Z,1.00
2023-01-19T01:18:41.136Z,1.00
2023-01-19T01:19:03.898Z,20.90
2023-01-19T01:19:26.608Z,97.30
2023-01-19T01:19:49.325Z,99.90
2023-01-19T01:20:16.851Z,99.90
2023-01-19T01:20:39.610Z,99.90
2023-01-19T01:21:03.271Z,43.80
2023-01-19T01:21:26.016Z,51.20
2023-01-19T01:21:51.311Z,1.00
2023-01-19T01:22:14.018Z,1.00
2023-01-19T01:22:39.320Z,1.00
2023-01-19T01:23:02.410Z,1.00
2023-01-19T01:23:28.390Z,1.00
2023-01-19T01:23:51.223Z,12.00
2023-01-19T01:24:14.101Z,50.60
2023-01-19T01:24:36.812Z,78.50
2023-01-19T01:24:59.529Z,99.90
2023-01-19T01:25:25.454Z,99.90
2023-01-19T01:25:48.247Z,99.90
2023-01-19T01:26:13.616Z,99.90
2023-01-19T01:26:36.449Z,99.90
2023-01-19T01:26:59.261Z,99.90
2023-01-19T01:27:22.375Z,99.90
2023-01-19T01:27:45.249Z,99.90
2023-01-19T01:28:08.844Z,99.90
2023-01-19T01:28:32.409Z,99.90
2023-01-19T01:28:57.396Z,1.00
2023-01-19T01:29:23.187Z,99.90
2023-01-19T01:29:48.486Z,99.90
2023-01-19T01:30:13.281Z,1.00
2023-01-19T01:30:40.285Z,1.00
2023-01-19T01:31:03.025Z,99.90
2023-01-19T01:31:26.007Z,99.90
2023-01-19T01:31:48.858Z,99.90
2023-01-19T01:32:15.505Z,99.90
2023-01-19T01:32:38.321Z,99.90
2023-01-19T01:33:01.370Z,99.90
2023-01-19T01:33:41.219Z,99.90
2023-01-19T01:34:04.806Z,99.90
2023-01-19T01:34:27.591Z,99.90
2023-01-19T01:34:50.392Z,1.00
2023-01-19T01:35:13.682Z,1.00
2023-01-19T01:35:36.568Z,1.00
2023-01-19T01:35:59.306Z,1.00
2023-01-19T01:36:24.587Z,1.00
2023-01-19T01:36:47.367Z,1.00
2023-01-19T01:37:12.718Z,1.00
2023-01-19T01:37:35.564Z,1.00
2023-01-19T01:38:01.203Z,1.00
2023-01-19T01:38:27.135Z,1.00
2023-01-19T01:38:52.376Z,1.00
2023-01-19T01:39:16.158Z,99.90
2023-01-19T01:39:42.028Z,99.90
2023-01-19T01:40:05.819Z,99.90
2023-01-19T01:40:28.820Z,99.90
2023-01-19T01:40:51.495Z,99.90
2023-01-19T01:41:14.306Z,99.90
2023-01-19T01:41:37.902Z,99.90
2023-01-19T01:42:01.836Z,1.00
2023-01-19T01:42:27.282Z,1.00
2023-01-19T01:42:50.433Z,1.00
2023-01-19T01:43:15.442Z,1.00
2023-01-19T01:43:45.636Z,1.00
2023-01-19T01:44:50.045Z,1.00
2023-01-19T01:45:31.246Z,1.00
2023-01-19T01:45:55.566Z,1.00
2023-01-19T01:46:18.442Z,1.00
2023-01-19T01:46:41.300Z,1.00
2023-01-19T01:47:06.508Z,1.00
2023-01-19T01:47:33.021Z,1.00
2023-01-19T01:47:58.005Z,1.00
2023-01-19T01:48:27.162Z,1.00
2023-01-19T01:48:51.845Z,1.00
2023-01-19T01:49:15.907Z,99.90
2023-01-19T01:49:38.666Z,99.90
2023-01-19T01:50:05.275Z,50.60
2023-01-19T01:50:30.832Z,1.00
2023-01-19T01:51:13.877Z,1.00
2023-01-19T01:51:38.734Z,1.00
2023-01-19T01:52:04.975Z,1.00
2023-01-19T01:52:28.030Z,2.80
2023-01-19T01:53:07.620Z,99.90
2023-01-19T01:53:31.050Z,99.90
2023-01-19T01:54:14.976Z,99.90
2023-01-19T01:54:37.705Z,99.90
2023-01-19T01:55:00.644Z,99.90
2023-01-19T01:55:23.655Z,99.90
2023-01-19T01:55:48.382Z,99.90
2023-01-19T01:56:13.283Z,1.00
2023-01-19T01:56:37.972Z,1.00
2023-01-19T01:57:04.503Z,1.00
2023-01-19T01:57:28.225Z,1.00
2023-01-19T01:57:53.316Z,99.90
2023-01-19T01:58:16.177Z,99.90
2023-01-19T01:58:38.986Z,1.00
2023-01-19T01:59:05.245Z,1.00
2023-01-19T01:59:34.991Z,1.00
2023-01-19T01:59:57.815Z,99.90
2023-01-19T02:00:20.750Z,99.90
2023-01-19T02:01:02.020Z,99.90
2023-01-19T02:01:43.604Z,99.90
2023-01-19T02:02:26.662Z,1.00
2023-01-19T02:02:53.507Z,1.00
2023-01-19T02:03:16.371Z,25.10
2023-01-19T02:03:39.210Z,97.70
2023-01-19T02:04:02.081Z,99.90
2023-01-19T02:04:27.000Z,99.90
2023-01-19T02:04:50.938Z,99.90
2023-01-19T02:05:15.841Z,99.90
2023-01-19T02:05:38.580Z,99.90
2023-01-19T02:06:02.286Z,99.90
2023-01-19T02:06:25.122Z,99.90
2023-01-19T02:07:06.839Z,99.90
2023-01-19T02:07:51.822Z,99.90
2023-01-19T02:08:35.484Z,99.90
2023-01-19T02:09:20.745Z,99.90
2023-01-19T02:10:02.364Z,1.00
2023-01-19T02:10:43.421Z,1.00
2023-01-19T02:11:24.840Z,1.00
2023-01-19T02:12:06.599Z,99.90
2023-01-19T02:12:47.643Z,1.00
2023-01-19T02:13:23.155Z,1.00
2023-01-19T02:13:48.315Z,1.00
2023-01-19T02:14:11.090Z,1.00
2023-01-19T02:14:37.611Z,1.00
2023-01-19T02:15:00.435Z,1.00
2023-01-19T02:15:23.345Z,1.00
2023-01-19T02:15:49.345Z,1.00
2023-01-19T02:16:13.335Z,1.00
2023-01-19T02:16:39.852Z,1.00
2023-01-19T02:17:02.560Z,1.00
2023-01-19T02:17:27.521Z,1.00
2023-01-19T02:17:51.896Z,1.00
2023-01-19T02:18:16.825Z,1.00
2023-01-19T02:18:39.776Z,1.00
2023-01-19T02:19:03.330Z,1.00
2023-01-19T02:19:32.034Z,1.00
2023-01-19T02:19:55.099Z,1.00
2023-01-19T02:20:18.095Z,1.00
2023-01-19T02:20:45.595Z,1.00
2023-01-19T02:21:11.266Z,1.00
2023-01-19T02:21:37.289Z,1.00
2023-01-19T02:22:02.193Z,1.00
2023-01-19T02:22:27.704Z,1.00
2023-01-19T02:22:50.741Z,1.00
2023-01-19T02:23:23.680Z,1.00
2023-01-19T02:23:49.543Z,1.00
2023-01-19T02:24:14.700Z,1.00
2023-01-19T02:24:37.430Z,1.00
2023-01-19T02:25:00.261Z,1.00
2023-01-19T02:25:25.486Z,1.00
2023-01-19T02:25:48.305Z,1.00
2023-01-19T02:26:14.789Z,1.00
2023-01-19T02:26:38.570Z,1.00
2023-01-19T02:27:01.425Z,1.00
2023-01-19T02:27:24.286Z,1.00
2023-01-19T02:27:50.248Z,1.00
2023-01-19T02:28:15.520Z,1.00
2023-01-19T02:28:39.425Z,1.00
2023-01-19T02:29:05.907Z,1.00
2023-01-19T02:29:28.869Z,1.00
2023-01-19T02:29:51.525Z,1.00
2023-01-19T02:30:16.789Z,1.00
2023-01-19T02:30:40.211Z,1.00
2023-01-19T02:31:05.171Z,1.00
2023-01-19T02:31:28.685Z,1.00
2023-01-19T02:31:54.097Z,1.00
2023-01-19T02:32:19.326Z,1.00
2023-01-19T02:32:44.484Z,1.00
2023-01-19T02:33:07.321Z,1.00
2023-01-19T02:33:30.204Z,1.00
2023-01-19T02:33:55.365Z,1.00
2023-01-19T02:34:19.328Z,1.00
2023-01-19T02:34:42.083Z,1.00
2023-01-19T02:35:05.443Z,1.00
2023-01-19T02:35:28.166Z,1.00
2023-01-19T02:35:51.572Z,1.00
2023-01-19T02:36:15.638Z,1.00
2023-01-19T02:36:43.377Z,1.00
2023-01-19T02:37:08.433Z,1.00
2023-01-19T02:37:34.304Z,1.00
2023-01-19T02:37:57.311Z,1.00
2023-01-19T02:38:22.210Z,1.00
2023-01-19T02:38:45.275Z,1.00
2023-01-19T02:39:11.853Z,1.00
2023-01-19T02:39:36.651Z,1.00
2023-01-19T02:40:03.120Z,1.00
2023-01-19T02:40:26.601Z,1.00
2023-01-19T02:40:49.293Z,1.00
2023-01-19T02:41:13.620Z,1.00
2023-01-19T02:41:41.804Z,1.00
2023-01-19T02:42:07.098Z,1.00
2023-01-19T02:42:33.867Z,1.00
2023-01-19T02:42:58.756Z,1.00
2023-01-19T02:43:21.879Z,1.00
2023-01-19T02:43:44.962Z,1.00
2023-01-19T02:44:11.250Z,1.00
2023-01-19T02:44:34.140Z,1.00
2023-01-19T02:44:57.355Z,1.00
2023-01-19T02:45:23.449Z,1.00
2023-01-19T02:45:46.868Z,1.00
2023-01-19T02:46:09.804Z,1.00
2023-01-19T02:46:32.680Z,1.00
2023-01-19T02:46:57.773Z,1.00
2023-01-19T02:47:20.500Z,1.00
2023-01-19T02:47:45.179Z,1.00
2023-01-19T02:48:10.916Z,1.00
2023-01-19T02:48:33.690Z,1.00
2023-01-19T02:49:01.627Z,1.00
2023-01-19T02:49:25.770Z,1.00
2023-01-19T02:49:56.140Z,1.00
2023-01-19T02:50:42.114Z,1.00
2023-01-19T02:51:11.106Z,1.00
2023-01-19T02:51:33.911Z,1.00
2023-01-19T02:51:56.696Z,1.00
2023-01-19T02:52:19.699Z,1.00
2023-01-19T02:52:42.403Z,1.00
2023-01-19T02:53:23.916Z,1.00
2023-01-19T02:54:12.666Z,1.00
2023-01-19T02:54:42.261Z,1.00
2023-01-19T02:55:07.297Z,1.00
2023-01-19T02:55:30.136Z,1.00
2023-01-19T02:55:58.640Z,1.00
2023-01-19T02:56:48.590Z,1.00
2023-01-19T02:57:34.875Z,1.00
2023-01-19T02:58:01.020Z,1.00
2023-01-19T02:58:26.253Z,1.00
2023-01-19T02:58:51.931Z,1.00
2023-01-19T02:59:17.604Z,1.00
2023-01-19T02:59:49.556Z,1.00
2023-01-19T03:00:20.334Z,1.00
2023-01-19T03:00:46.841Z,1.00
2023-01-19T03:01:14.182Z,1.00
2023-01-19T03:01:42.559Z,1.00
2023-01-19T03:02:17.884Z,1.00
2023-01-19T03:02:46.518Z,1.00
2023-01-19T03:03:19.071Z,1.00
2023-01-19T03:03:46.486Z,1.00
2023-01-19T03:04:12.080Z,1.00
2023-01-19T03:04:41.295Z,1.00
2023-01-19T03:05:30.721Z,1.00
2023-01-19T03:05:57.304Z,1.00
2023-01-19T03:06:25.925Z,1.00
2023-01-19T03:06:50.116Z,1.00
2023-01-19T03:07:14.720Z,1.00
2023-01-19T03:07:43.506Z,1.00
2023-01-19T03:08:09.980Z,1.00
2023-01-19T03:08:42.421Z,1.00
2023-01-19T03:09:08.856Z,1.00
2023-01-19T03:09:35.051Z,1.00
2023-01-19T03:10:02.754Z,1.00
2023-01-19T03:10:30.700Z,1.00
2023-01-19T03:10:55.228Z,1.00
2023-01-19T03:11:18.120Z,1.00
2023-01-19T03:11:44.814Z,1.00
2023-01-19T03:12:12.966Z,1.00
2023-01-19T03:12:41.130Z,1.00
2023-01-19T03:13:06.647Z,1.00
2023-01-19T03:13:33.295Z,1.00
2023-01-19T03:13:58.721Z,1.00
2023-01-19T03:14:26.645Z,1.00
2023-01-19T03:14:49.440Z,99.90
2023-01-19T03:15:16.886Z,99.90
2023-01-19T03:15:41.565Z,99.90
2023-01-19T03:16:06.526Z,76.50
2023-01-19T03:16:30.627Z,22.40
2023-01-19T03:16:55.928Z,1.00
2023-01-19T03:17:19.319Z,1.00
2023-01-19T03:17:44.554Z,1.00
2023-01-19T03:18:08.522Z,99.90
2023-01-19T03:18:32.653Z,88.50
2023-01-19T03:18:57.025Z,1.00
2023-01-19T03:19:23.590Z,1.00
2023-01-19T03:19:47.760Z,1.00
2023-01-19T03:20:13.826Z,1.00
2023-01-19T03:20:36.645Z,10.20
2023-01-19T03:21:00.811Z,99.90
2023-01-19T03:21:25.208Z,99.90
2023-01-19T03:21:49.805Z,99.90
2023-01-19T03:22:15.365Z,99.90
2023-01-19T03:22:38.205Z,99.90
2023-01-19T03:23:02.780Z,56.00
2023-01-19T03:23:27.659Z,99.90
2023-01-19T03:23:50.565Z,1.00
2023-01-19T03:24:13.609Z,99.90
2023-01-19T03:24:40.229Z,1.00
2023-01-19T03:25:05.177Z,99.90
2023-01-19T03:25:29.937Z,1.00
2023-01-19T03:25:52.741Z,99.90
2023-01-19T03:26:16.715Z,1.00
2023-01-19T03:26:41.322Z,99.90
2023-01-19T03:27:06.324Z,99.90
2023-01-19T03:27:31.366Z,99.90
2023-01-19T03:27:54.800Z,99.90
2023-01-19T03:28:17.995Z,99.90
2023-01-19T03:28:41.211Z,99.90
2023-01-19T03:29:04.034Z,99.90
2023-01-19T03:29:28.903Z,99.90
2023-01-19T03:29:53.673Z,99.90
2023-01-19T03:30:20.496Z,90.20
2023-01-19T03:30:46.955Z,1.00
2023-01-19T03:31:12.887Z,1.00
2023-01-19T03:31:35.802Z,1.00
2023-01-19T03:32:00.109Z,1.00
2023-01-19T03:32:25.608Z,1.00
2023-01-19T03:32:52.716Z,1.00
2023-01-19T03:33:16.809Z,1.00
2023-01-19T03:33:43.055Z,1.00
2023-01-19T03:34:09.530Z,1.00
2023-01-19T03:34:32.619Z,1.00
2023-01-19T03:34:55.499Z,1.00
2023-01-19T03:35:21.743Z,1.00
2023-01-19T03:35:47.306Z,1.00
2023-01-19T03:36:13.486Z,1.00
2023-01-19T03:36:37.575Z,1.00
2023-01-19T03:37:04.588Z,1.00
2023-01-19T03:37:27.524Z,1.00
2023-01-19T03:37:54.726Z,1.00
2023-01-19T03:38:20.017Z,1.00
2023-01-19T03:38:42.763Z,1.00
2023-01-19T03:39:08.796Z,1.00
2023-01-19T03:39:31.740Z,1.00
2023-01-19T03:39:57.979Z,1.00
2023-01-19T03:40:22.592Z,1.00
2023-01-19T03:40:45.310Z,1.00
2023-01-19T03:41:13.184Z,1.00
2023-01-19T03:41:36.011Z,1.00
2023-01-19T03:42:02.415Z,1.00
2023-01-19T03:42:25.125Z,1.00
2023-01-19T03:42:47.837Z,1.00
2023-01-19T03:43:10.660Z,1.00
2023-01-19T03:43:35.595Z,1.00
2023-01-19T03:44:00.652Z,1.00
2023-01-19T03:44:25.795Z,1.00
2023-01-19T03:44:50.785Z,1.00
2023-01-19T03:45:15.711Z,1.00
2023-01-19T03:45:38.804Z,1.00
2023-01-19T03:46:04.282Z,1.00
2023-01-19T03:46:27.491Z,1.00
2023-01-19T03:46:52.776Z,1.00
2023-01-19T03:47:18.653Z,1.00
2023-01-19T03:47:41.526Z,1.00
2023-01-19T03:48:07.533Z,1.00
2023-01-19T03:48:32.751Z,1.00
2023-01-19T03:48:58.081Z,1.00
2023-01-19T03:49:25.869Z,1.00
2023-01-19T03:49:51.611Z,1.00
2023-01-19T03:50:15.310Z,99.90
2023-01-19T03:50:38.325Z,99.90
2023-01-19T03:51:06.171Z,99.90
2023-01-19T03:51:28.910Z,99.90
2023-01-19T03:51:52.201Z,99.90
2023-01-19T03:52:14.985Z,1.00
2023-01-19T03:52:37.760Z,1.00
2023-01-19T03:53:04.940Z,1.00
2023-01-19T03:53:27.636Z,1.00
2023-01-19T03:53:50.473Z,99.90
2023-01-19T03:54:13.366Z,1.00
2023-01-19T03:54:36.183Z,1.00
2023-01-19T03:54:59.079Z,1.00
2023-01-19T03:55:23.436Z,99.90
2023-01-19T03:55:47.718Z,99.90
2023-01-19T03:56:17.622Z,1.00
2023-01-19T03:56:40.486Z,1.00
2023-01-19T03:57:03.285Z,99.90
2023-01-19T03:57:25.981Z,99.90
2023-01-19T03:57:48.619Z,99.90
2023-01-19T03:58:11.534Z,99.90
2023-01-19T03:58:34.395Z,99.90
2023-01-19T03:58:57.187Z,99.90
2023-01-19T03:59:23.107Z,99.90
2023-01-19T03:59:45.901Z,1.00
2023-01-19T04:00:10.697Z,1.00
2023-01-19T04:00:33.530Z,1.00
2023-01-19T04:00:58.587Z,1.00
2023-01-19T04:01:23.105Z,1.00
2023-01-19T04:01:48.714Z,1.00
2023-01-19T04:02:11.647Z,1.00
2023-01-19T04:02:36.687Z,1.00
2023-01-19T04:03:02.350Z,1.00
2023-01-19T04:03:25.388Z,1.00
2023-01-19T04:03:50.460Z,1.00
2023-01-19T04:04:16.231Z,1.00
2023-01-19T04:04:38.980Z,1.00
2023-01-19T04:05:01.764Z,1.00
2023-01-19T04:05:24.580Z,1.00
2023-01-19T04:05:47.361Z,1.00
2023-01-19T04:06:10.259Z,1.00
2023-01-19T04:06:35.382Z,1.00
2023-01-19T04:06:58.214Z,1.00
2023-01-19T04:07:20.895Z,1.00
2023-01-19T04:07:43.663Z,1.00
2023-01-19T04:08:06.852Z,99.90
2023-01-19T04:08:29.605Z,99.90
2023-01-19T04:08:52.403Z,99.90
2023-01-19T04:09:15.202Z,1.00
2023-01-19T04:09:38.024Z,99.90
2023-01-19T04:10:00.745Z,1.00
2023-01-19T04:10:25.134Z,99.90
2023-01-19T04:10:47.878Z,99.90
2023-01-19T04:11:12.852Z,1.00
2023-01-19T04:11:35.639Z,99.90
2023-01-19T04:11:58.563Z,1.00
2023-01-19T04:12:21.267Z,99.90
2023-01-19T04:12:44.129Z,99.90
2023-01-19T04:13:06.822Z,99.90
2023-01-19T04:13:30.251Z,99.90
2023-01-19T04:13:52.976Z,99.90
2023-01-19T04:14:15.848Z,99.90
2023-01-19T04:14:41.380Z,99.90
2023-01-19T04:15:04.964Z,99.90
2023-01-19T04:15:27.757Z,99.90
2023-01-19T04:15:50.500Z,99.90
2023-01-19T04:16:13.428Z,99.90
2023-01-19T04:16:36.296Z,99.90
2023-01-19T04:17:02.093Z,1.00
2023-01-19T04:17:24.969Z,99.90
2023-01-19T04:17:48.021Z,99.90
2023-01-19T04:18:10.741Z,99.90
2023-01-19T04:18:34.752Z,99.90
2023-01-19T04:18:57.511Z,99.90
2023-01-19T04:19:20.253Z,99.90
2023-01-19T04:19:45.280Z,1.00
2023-01-19T04:20:10.109Z,1.00
2023-01-19T04:20:36.165Z,1.00
2023-01-19T04:21:03.501Z,1.00
2023-01-19T04:21:26.404Z,1.00
2023-01-19T04:21:51.317Z,1.00
2023-01-19T04:22:14.061Z,99.90
2023-01-19T04:22:36.841Z,99.90
2023-01-19T04:23:00.054Z,99.90
2023-01-19T04:23:26.245Z,99.90
2023-01-19T04:23:50.018Z,99.90
2023-01-19T04:24:12.941Z,99.90
2023-01-19T04:24:35.697Z,99.90
2023-01-19T04:24:58.411Z,99.90
2023-01-19T04:25:21.596Z,99.90
2023-01-19T04:25:45.796Z,99.90
2023-01-19T04:26:08.760Z,99.90
2023-01-19T04:26:31.638Z,99.90
2023-01-19T04:26:54.314Z,99.90
2023-01-19T04:27:17.055Z,99.90
2023-01-19T04:27:39.783Z,99.90
2023-01-19T04:28:02.625Z,99.90
2023-01-19T04:28:25.420Z,99.90
2023-01-19T04:28:48.340Z,99.90
2023-01-19T04:29:11.205Z,99.90
2023-01-19T04:29:33.922Z,99.90
2023-01-19T04:29:57.006Z,99.90
2023-01-19T04:30:19.852Z,1.00
2023-01-19T04:30:42.561Z,1.00
2023-01-19T04:31:05.877Z,1.00
2023-01-19T04:31:31.388Z,1.00
2023-01-19T04:31:54.143Z,51.80
2023-01-19T04:32:17.142Z,59.60
2023-01-19T04:32:40.022Z,13.10
2023-01-19T04:33:03.271Z,16.60
2023-01-19T04:33:29.646Z,1.00
2023-01-19T04:33:52.374Z,2.40
2023-01-19T04:34:17.819Z,68.60
2023-01-19T04:34:40.591Z,99.90
2023-01-19T04:35:03.331Z,65.10
2023-01-19T04:35:26.110Z,41.60
2023-01-19T04:35:49.540Z,21.40
2023-01-19T04:36:12.331Z,32.80
2023-01-19T04:36:35.685Z,44.80
2023-01-19T04:36:58.428Z,43.00
2023-01-19T04:37:21.166Z,62.20
2023-01-19T04:37:45.181Z,52.60
2023-01-19T04:38:07.901Z,1.00
2023-01-19T04:38:30.661Z,1.00
2023-01-19T04:38:55.519Z,1.00
2023-01-19T04:39:18.356Z,99.90
2023-01-19T04:39:41.140Z,99.90
2023-01-19T04:40:04.053Z,99.90
2023-01-19T04:40:26.803Z,99.90
2023-01-19T04:40:53.519Z,1.00
2023-01-19T04:41:18.517Z,1.00
2023-01-19T04:41:41.284Z,1.00
2023-01-19T04:42:06.274Z,1.00
2023-01-19T04:42:29.143Z,1.00
2023-01-19T04:42:51.963Z,99.90
2023-01-19T04:43:14.766Z,1.00
2023-01-19T04:43:38.019Z,1.00
2023-01-19T04:44:00.742Z,1.00
2023-01-19T04:44:26.236Z,1.00
2023-01-19T04:44:49.138Z,1.00
2023-01-19T04:45:12.247Z,99.90
2023-01-19T04:45:37.440Z,99.90
2023-01-19T04:46:00.235Z,99.90
2023-01-19T04:46:25.522Z,1.00
2023-01-19T04:46:48.449Z,1.00
2023-01-19T04:47:13.755Z,1.00
2023-01-19T04:47:37.130Z,1.00
2023-01-19T04:48:00.008Z,1.00
2023-01-19T04:48:25.191Z,1.00
2023-01-19T04:48:50.501Z,1.00
2023-01-19T04:49:13.446Z,99.90
2023-01-19T04:49:39.054Z,99.90
2023-01-19T04:50:01.794Z,99.90
2023-01-19T04:50:25.149Z,1.00
2023-01-19T04:50:50.370Z,1.00
2023-01-19T04:51:13.106Z,1.00
2023-01-19T04:51:38.210Z,1.00
2023-01-19T04:52:01.460Z,99.90
2023-01-19T04:52:24.167Z,99.90
2023-01-19T04:52:47.117Z,99.90
2023-01-19T04:53:09.939Z,99.90
2023-01-19T04:53:32.667Z,99.90
2023-01-19T04:53:58.006Z,99.90
2023-01-19T04:54:20.788Z,99.90
2023-01-19T04:54:43.591Z,99.90
2023-01-19T04:55:08.253Z,99.90
2023-01-19T04:55:31.419Z,99.90
2023-01-19T04:55:59.171Z,7.60
2023-01-19T04:56:22.036Z,65.20
2023-01-19T04:56:44.928Z,78.70
2023-01-19T04:57:07.705Z,99.90
2023-01-19T04:57:30.561Z,99.90
2023-01-19T04:57:54.582Z,42.60
2023-01-19T04:58:17.309Z,1.00
2023-01-19T04:58:42.264Z,1.00
2023-01-19T04:59:05.036Z,1.00
2023-01-19T04:59:27.822Z,1.00
2023-01-19T04:59:50.636Z,95.50
2023-01-19T05:00:17.866Z,1.00
2023-01-19T05:00:40.658Z,99.90
2023-01-19T05:01:07.454Z,99.90
2023-01-19T05:01:30.463Z,99.90
2023-01-19T05:01:55.614Z,1.00
2023-01-19T05:02:18.371Z,99.90
2023-01-19T05:02:44.104Z,99.90
2023-01-19T05:03:07.153Z,99.90
2023-01-19T05:03:30.343Z,99.90
2023-01-19T05:03:53.195Z,99.90
2023-01-19T05:04:18.415Z,99.90
2023-01-19T05:04:41.210Z,99.90
2023-01-19T05:05:04.242Z,99.90
2023-01-19T05:05:27.519Z,99.90
2023-01-19T05:05:50.266Z,1.00
2023-01-19T05:06:13.124Z,1.00
2023-01-19T05:06:38.108Z,1.00
2023-01-19T05:07:03.226Z,3.50
2023-01-19T05:07:25.920Z,9.50
2023-01-19T05:07:48.651Z,43.20
2023-01-19T05:08:11.446Z,1.00
2023-01-19T05:08:36.392Z,1.00
2023-01-19T05:08:59.065Z,1.00
2023-01-19T05:09:22.105Z,99.90
2023-01-19T05:09:45.498Z,9.80
2023-01-19T05:10:10.263Z,39.10
2023-01-19T05:10:33.103Z,24.70
2023-01-19T05:11:00.447Z,1.00
2023-01-19T05:11:23.110Z,12.60
2023-01-19T05:11:48.422Z,1.00
2023-01-19T05:12:11.817Z,42.60
2023-01-19T05:12:36.344Z,99.90
2023-01-19T05:12:59.331Z,99.90
2023-01-19T05:13:22.443Z,99.90
2023-01-19T05:13:47.555Z,99.90
2023-01-19T05:14:11.144Z,99.90
2023-01-19T05:14:33.833Z,99.90
2023-01-19T05:14:56.590Z,99.90
2023-01-19T05:15:19.426Z,99.90
2023-01-19T05:15:42.240Z,99.90
2023-01-19T05:16:06.959Z,99.90
2023-01-19T05:16:29.911Z,99.90
2023-01-19T05:16:52.816Z,99.90
2023-01-19T05:17:15.639Z,99.90
2023-01-19T05:17:41.297Z,99.90
2023-01-19T05:18:04.263Z,99.90
2023-01-19T05:18:27.019Z,67.60
2023-01-19T05:18:49.796Z,73.50
2023-01-19T05:19:15.586Z,64.00
2023-01-19T05:19:38.357Z,83.60
2023-01-19T05:20:01.149Z,99.90
2023-01-19T05:20:23.907Z,99.90
2023-01-19T05:20:48.805Z,99.90
2023-01-19T05:21:11.611Z,99.90
2023-01-19T05:21:34.376Z,99.90
2023-01-19T05:21:57.120Z,99.90
2023-01-19T05:22:20.970Z,99.90
2023-01-19T05:22:43.768Z,99.90
2023-01-19T05:23:06.483Z,99.90
2023-01-19T05:23:31.380Z,99.90
2023-01-19T05:23:54.090Z,99.90
2023-01-19T05:24:16.820Z,99.90
2023-01-19T05:24:41.768Z,99.90
2023-01-19T05:25:05.345Z,99.90
2023-01-19T05:25:30.715Z,1.00
2023-01-19T05:25:56.400Z,1.00
2023-01-19T05:26:20.731Z,99.90
2023-01-19T05:26:43.683Z,1.00
2023-01-19T05:27:06.441Z,99.90